AirNav   TITAN Aviation Fuels
 
 776 users online  

0FD6 Fulton Seaplane Base
Sebastian, Florida, USA

GOING TO SEBASTIAN?


FAA INFORMATION EFFECTIVE 20 MAY 2021

Location

FAA Identifier: 0FD6
Lat/Long: 27-54-27.0800N 080-29-11.1880W
27-54.451333N 080-29.186467W
27.9075222,-80.4864411
(estimated)
Elevation: 0 ft. / 0 m (estimated)
Variation: 03W (1980)
From city: 2 miles N of SEBASTIAN, FL
Time zone: UTC -4 (UTC -5 during Standard Time)
Zip code: 32976

Seaplane Base Operations

Seaplane Base use: Private use. Permission required prior to landing
Activation date: 11/1986
Control tower: no
ARTCC: MIAMI CENTER
FSS: SAINT PETERSBURG FLIGHT SERVICE STATION
Attendance: DAYLIGHT HOURS
Wind indicator: yes
Segmented circle: no

Seaplane Base Communications

WX AWOS-3 at X59 (5 nm NW): 122.725
WX AWOS-3PT at X26 (6 nm S): 118.125 (772-388-5689)
WX ASOS at MLB (14 nm NW): 132.55 (321-951-7575)
WX ASOS at VRB (16 nm S): 120.575 (772-978-9535)

Nearby radio navigation aids

VOR radial/distance  VOR name  Freq  Var
TRVr008/13.7TREASURE VORTAC117.3007W
MLBr153/14.2MELBOURNE VOR/DME110.0007W

 
NDB name  Hdg/Dist  Freq  Var  ID
FORT PIERCE354/26.027507WFPR ..-. .--. .-.

Seaplane Base Services

Runway Information

Runway 2W/20W

Dimensions: 3000 x 100 ft. / 914 x 30 m
Surface: water
RUNWAY 2W  RUNWAY 20W
Traffic pattern: leftleft

Seaplane Base Ownership and Management from official FAA records

Ownership: Privately-owned
Owner: KENNETH E FULTON
7830 CASUARINA DR
S MELBOURNE BEACH, FL 32951
Phone (321) 723-5699
Manager: KENNETH E FULTON
7830 CASUARINA DR
S MELBOURNE BEACH, FL 32951
Phone (321) 723-5699

Seaplane Base Operational Statistics

Aircraft based on the field: 1
Single engine airplanes: 1
    

Additional Remarks

FOR CD CTC PALM BEACH APCH AT 561-275-1430

Instrument Procedures

There are no published instrument procedures at 0FD6.

Some nearby airports with instrument procedures:

X26 - Sebastian Municipal Airport (6 nm S)
KMLB - Melbourne International Airport (14 nm NW)
KVRB - Vero Beach Regional Airport (16 nm S)
KCOF - Patrick Air Force Base (21 nm N)
KFPR - Treasure Coast International Airport (25 nm S)
 
Loc | Ops | Rwys | IFR | FBO | Links
Com | Nav | Svcs | Stats | Notes


 
Area around 0FD6 (Fulton Seaplane Base)
 
Road maps at: MapQuest Bing Google
 
Aerial photo
No photo
 
Sectional chart

 
Airport distance calculator
Flying to Fulton Seaplane Base? Find the distance to fly.

From to 0FD6

Sunrise and sunset
Times for 12-Jun-2021
 Local
(UTC-4)
 Zulu
(UTC)
Morning civil twilight05:5909:59
Sunrise06:2610:26
Sunset20:1700:17
Evening civil twilight20:4400:44

Current date and time
Zulu (UTC)  13-Jun-2021 03:25:15
Local (UTC-4)  12-Jun-2021 23:25:15
 
METAR
KX26 
6nm S 
130255Z AUTO 22006KT 10SM CLR 26/24 A2990 RMK AO2 T02580242
KMLB 
14nm NW 
130253Z 22008KT 10SM CLR 26/23 A2989 RMK AO2 SLP121 T02610233 53018
KVRB 
16nm S 
130253Z AUTO 22007KT 10SM FEW045 27/24 A2990 RMK AO2 SLP122 T02670244 51014
KCOF 
19nm N 
122356Z AUTO 18004KT 10SM CLR 25/20 A2983 RMK AO2 SLP106 60038 T02540204 10302 20231 58007 $
TAF
KMLB 
14nm NW 
122114Z 1221/1318 17010KT P6SM VCTS SCT035CB BKN080 FM130000 24006KT P6SM FEW050 SCT120 FM131400 24008KT P6SM SCT030 SCT120
KVRB 
16nm S 
122101Z 1221/1318 24010KT P6SM VCTS SCT060CB BKN100 FM130100 21007KT P6SM FEW050 SCT120 FM131400 24008KT P6SM SCT030 SCT120
KCOF 
19nm N 
121800Z 1218/1324 12010KT 9999 SCT030 QNH2986INS BECMG 1220/1221 22010G15KT 9999 VCTS SCT020CB QNH2983INS TEMPO 1221/1224 22015G25KT 8000 -TSRA BKN020CB BECMG 1302/1303 23010G15KT 9999 NSW SCT035 QNH2985INS BECMG 1316/1317 17010KT 9999 SCT025 QNH2986INS BECMG 1320/1321 22010KT 9999 VCTS BKN020CB QNH2981INS TX32/1317Z TN24/1310Z LAST NO AMDS AFT 1221 NEXT 1310
NOTAMs
Click for the latest NOTAMs
NOTAMs are issued by the DoD/FAA and will open in a separate window not controlled by AirNav.

 

 
 

Would you like to see your business listed on this page?

 If your business provides an interesting product or service to pilots, flight crews, aircraft, or users of the Fulton Seaplane Base, you should consider listing it here.  To start the listing process, click on the button below
 
Add a business
 

Other Pages about Fulton Seaplane Base

Update a link
 
Copyright © AirNav, LLC. All rights reserved. Privacy Policy  Contact